Time;durP1;ratioP1;P1;durP2;ratioP2;P2;SDS_P1;SDS_P2;PMS_P1;PMS_P2;Temp;Humidity;BMP_temperature;BMP_pressure;BME280_temperature;BME280_humidity;BME280_pressure;Samples;Min_cycle;Max_cycle;Signal;HPM_P1;HPM_P2
2023/04/01 00:00:32;;;;;;;11.50;3.05;;;;;;;8.83;100.00;99071.38;4907404;29;20152;-89
2023/04/01 00:03:01;;;;;;;8.57;2.42;;;;;;;8.83;100.00;99074.00;4911848;29;20050;-89
2023/04/01 00:05:27;;;;;;;7.80;2.65;;;;;;;8.83;100.00;99071.38;4914146;29;20047;-90
2023/04/01 00:07:55;;;;;;;7.68;2.63;;;;;;;8.83;100.00;99072.19;4936961;29;20466;-89
2023/04/01 00:10:27;;;;;;;7.00;2.50;;;;;;;8.81;100.00;99073.31;4917760;29;20042;-89
2023/04/01 00:13:08;;;;;;;7.05;2.53;;;;;;;8.82;100.00;99073.19;4921825;29;20036;-88
2023/04/01 00:15:55;;;;;;;7.18;2.75;;;;;;;8.84;100.00;99075.66;4922310;29;20121;-88
2023/04/01 00:18:40;;;;;;;7.47;2.65;;;;;;;8.83;100.00;99080.06;4943269;29;20042;-88
2023/04/01 00:21:22;;;;;;;6.80;2.50;;;;;;;8.84;100.00;99083.50;4943078;29;20054;-89
2023/04/01 00:23:53;;;;;;;7.40;2.63;;;;;;;8.83;100.00;99081.88;4948618;29;20059;-89
2023/04/01 00:26:34;;;;;;;9.00;2.70;;;;;;;8.83;100.00;99084.50;4952532;29;20428;-89
2023/04/01 00:29:00;;;;;;;6.18;2.53;;;;;;;8.81;100.00;99082.00;4933141;29;20081;-89
2023/04/01 00:31:29;;;;;;;7.95;2.50;;;;;;;8.81;100.00;99087.25;4934216;29;20034;-88
2023/04/01 00:33:56;;;;;;;6.78;2.33;;;;;;;8.80;100.00;99085.56;4945634;29;20500;-89
2023/04/01 00:36:21;;;;;;;5.72;2.42;;;;;;;8.82;100.00;99085.47;4924071;29;20049;-89
2023/04/01 00:38:50;;;;;;;6.03;2.47;;;;;;;8.82;100.00;99095.94;4932812;29;20038;-89
2023/04/01 00:41:20;;;;;;;6.40;2.70;;;;;;;8.82;100.00;99088.91;4951506;29;20377;-88
2023/04/01 00:44:16;;;;;;;4.57;2.70;;;;;;;8.81;100.00;99096.91;4936485;29;20035;-89
2023/04/01 00:46:47;;;;;;;6.55;2.90;;;;;;;8.83;100.00;99098.44;4949154;28;20045;-89
2023/04/01 00:49:23;;;;;;;4.35;2.70;;;;;;;8.84;100.00;99104.50;4949649;29;20078;-89
2023/04/01 00:51:55;;;;;;;7.45;2.60;;;;;;;8.85;100.00;99100.91;4915088;29;20468;-89
2023/04/01 00:54:35;;;;;;;7.78;3.20;;;;;;;8.83;100.00;99102.84;4922297;29;20047;-89
2023/04/01 00:57:15;;;;;;;5.53;2.80;;;;;;;8.85;100.00;99116.63;4948254;29;20126;-89
2023/04/01 00:59:50;;;;;;;6.25;2.97;;;;;;;8.82;100.00;99102.03;4931635;29;20039;-88
2023/04/01 01:02:28;;;;;;;6.15;3.53;;;;;;;8.82;100.00;99116.94;4963319;28;20135;-88
2023/04/01 01:04:56;;;;;;;4.57;3.10;;;;;;;8.81;100.00;99117.91;4945795;29;20032;-88
2023/04/01 01:07:56;;;;;;;;;;;;;;;;;;;;;
2023/04/01 01:10:38;;;;;;;5.88;3.53;;;;;;;8.83;100.00;99111.53;4931914;29;20396;-88
2023/04/01 01:13:48;;;;;;;5.68;3.28;;;;;;;8.84;100.00;99117.59;4914572;29;20067;-88
2023/04/01 01:16:32;;;;;;;5.10;3.53;;;;;;;8.83;100.00;99118.56;4936847;29;20297;-88
2023/04/01 01:19:14;;;;;;;5.07;3.70;;;;;;;8.79;100.00;99118.84;4929895;29;20123;-87
2023/04/01 01:22:10;;;;;;;4.85;3.63;;;;;;;8.83;100.00;99118.56;4932507;29;20054;-88
2023/04/01 01:24:58;;;;;;;4.22;3.78;;;;;;;8.81;100.00;99126.59;4924414;29;20031;-87
2023/04/01 01:27:35;;;;;;;4.55;4.15;;;;;;;8.79;100.00;99123.25;4940991;28;20075;-88
2023/04/01 01:30:55;;;;;;;4.72;4.07;;;;;;;8.79;100.00;99121.47;4931026;29;20036;-88
2023/04/01 01:33:59;;;;;;;7.28;6.10;;;;;;;8.78;100.00;99122.44;4869769;29;20051;-87
2023/04/01 01:36:38;;;;;;;7.00;5.80;;;;;;;8.78;100.00;99124.22;4845799;29;20048;-87
2023/04/01 01:39:10;;;;;;;7.15;6.45;;;;;;;8.77;100.00;99126.03;4863942;29;20422;-87
2023/04/01 01:41:50;;;;;;;9.63;8.73;;;;;;;8.78;100.00;99130.28;4857303;29;20425;-87
2023/04/01 01:44:21;;;;;;;10.32;9.30;;;;;;;8.81;100.00;99131.00;4886298;29;20045;-87
2023/04/01 01:46:52;;;;;;;10.70;9.80;;;;;;;8.82;100.00;99135.28;4873946;29;20085;-87
2023/04/01 01:49:30;;;;;;;10.68;9.68;;;;;;;8.81;100.00;99144.13;4882289;29;20128;-87
2023/04/01 01:52:01;;;;;;;10.82;9.82;;;;;;;8.79;100.00;99145.06;4870512;29;20110;-87
2023/04/01 01:54:26;;;;;;;9.90;9.00;;;;;;;8.77;100.00;99140.94;4909710;29;20035;-87
2023/04/01 01:57:20;;;;;;;9.98;9.07;;;;;;;8.78;100.00;99140.78;4926510;29;20565;-87
2023/04/01 01:59:54;;;;;;;10.32;9.40;;;;;;;8.76;100.00;99155.84;4923014;29;20039;-88
2023/04/01 02:02:25;;;;;;;10.10;9.18;;;;;;;8.74;100.00;99152.53;4930926;29;20044;-87
2023/04/01 02:05:03;;;;;;;10.27;9.38;;;;;;;8.75;100.00;99158.59;4929291;29;20531;-88
2023/04/01 02:07:36;;;;;;;11.02;9.88;;;;;;;8.70;100.00;99159.03;4912003;29;20421;-87
2023/04/01 02:10:08;;;;;;;11.68;9.45;;;;;;;8.70;100.00;99156.41;4916216;29;20031;-87
2023/04/01 02:12:45;;;;;;;11.98;10.73;;;;;;;8.72;100.00;99164.13;4915650;29;20528;-87
2023/04/01 02:15:31;;;;;;;12.52;11.23;;;;;;;8.71;100.00;99160.69;4911585;29;20092;-87
2023/04/01 02:18:00;;;;;;;13.93;12.50;;;;;;;8.68;100.00;99163.59;4927167;29;20520;-88
2023/04/01 02:20:43;;;;;;;14.27;12.82;;;;;;;8.67;100.00;99161.94;4932104;29;20039;-87
2023/04/01 02:23:18;;;;;;;14.85;13.32;;;;;;;8.69;100.00;99165.25;4913581;29;20428;-88
2023/04/01 02:25:45;;;;;;;15.98;13.90;;;;;;;8.67;100.00;99161.94;4918882;29;20408;-88
2023/04/01 02:28:25;;;;;;;16.17;13.50;;;;;;;8.67;100.00;99169.81;4927413;29;20039;-88
2023/04/01 02:31:02;;;;;;;16.27;13.70;;;;;;;8.64;100.00;99162.22;4913213;29;20044;-88
2023/04/01 02:33:28;;;;;;;15.80;13.95;;;;;;;8.63;100.00;99165.81;4931835;29;20462;-88
2023/04/01 02:35:54;;;;;;;18.88;15.00;;;;;;;8.62;100.00;99164.19;4952100;29;20119;-87
2023/04/01 02:38:19;;;;;;;19.52;16.15;;;;;;;8.61;100.00;99167.75;4954068;29;20122;-87
2023/04/01 02:41:02;;;;;;;18.98;16.92;;;;;;;8.61;100.00;99164.31;4954349;29;20507;-87
2023/04/01 02:43:34;;;;;;;21.73;17.02;;;;;;;8.60;100.00;99171.34;4950821;29;20070;-88
2023/04/01 02:46:00;;;;;;;20.65;17.75;;;;;;;8.60;100.00;99175.78;4925975;29;20477;-88
2023/04/01 02:48:29;;;;;;;20.83;17.63;;;;;;;8.58;100.00;99173.28;4911284;29;20062;-86
2023/04/01 02:50:55;;;;;;;22.40;18.85;;;;;;;8.58;100.00;99172.47;4945985;29;20058;-87
2023/04/01 02:53:24;;;;;;;20.17;17.88;;;;;;;8.57;100.00;99187.38;4946025;29;20036;-87
2023/04/01 02:55:56;;;;;;;20.08;17.92;;;;;;;8.57;100.00;99181.31;4935364;29;20488;-86
2023/04/01 02:58:27;;;;;;;23.48;17.77;;;;;;;8.56;100.00;99172.63;4953055;29;20090;-87
2023/04/01 03:00:58;;;;;;;26.83;18.23;;;;;;;8.55;100.00;99184.06;4949937;29;20043;-87
2023/04/01 03:03:27;;;;;;;20.13;16.67;;;;;;;8.55;100.00;99186.69;4932755;29;20032;-87
2023/04/01 03:06:11;;;;;;;19.02;16.73;;;;;;;8.54;100.00;99187.66;4914728;29;20048;-87
2023/04/01 03:08:39;;;;;;;18.48;16.40;;;;;;;8.56;100.00;99190.13;4935558;29;20044;-86
2023/04/01 03:11:37;;;;;;;20.23;15.88;;;;;;;8.55;100.00;99184.06;4932935;29;20040;-86
2023/04/01 03:14:02;;;;;;;20.67;16.33;;;;;;;8.54;100.00;99192.91;4873948;29;20049;-86
2023/04/01 03:16:28;;;;;;;20.98;16.80;;;;;;;8.56;100.00;99198.81;4870295;29;20127;-86
2023/04/01 03:18:58;;;;;;;22.20;17.10;;;;;;;8.52;100.00;99194.00;4922449;29;20126;-86
2023/04/01 03:21:24;;;;;;;21.25;16.67;;;;;;;8.53;100.00;99200.91;4912804;29;20106;-87
2023/04/01 03:23:56;;;;;;;18.90;15.98;;;;;;;8.52;100.00;99199.25;4935854;29;20046;-86
2023/04/01 03:26:26;;;;;;;19.75;17.30;;;;;;;8.51;100.00;99208.09;4951265;29;20380;-86
2023/04/01 03:28:58;;;;;;;20.52;16.95;;;;;;;8.50;100.00;99201.19;4931993;29;20070;-85
2023/04/01 03:31:24;;;;;;;20.67;17.35;;;;;;;8.50;100.00;99212.50;4949886;29;20035;-86
2023/04/01 03:33:49;;;;;;;18.75;15.93;;;;;;;8.47;100.00;99207.53;4935096;29;20035;-86
2023/04/01 03:36:18;;;;;;;19.50;16.33;;;;;;;8.50;100.00;99217.75;4949689;29;20043;-86
2023/04/01 03:38:49;;;;;;;18.27;16.40;;;;;;;8.47;100.00;99213.59;4935346;29;20038;-87
2023/04/01 03:41:19;;;;;;;18.73;16.05;;;;;;;8.49;100.00;99216.09;4942343;29;20047;-86
2023/04/01 03:43:47;;;;;;;17.38;15.50;;;;;;;8.46;100.00;99217.19;4917809;29;20071;-87
2023/04/01 03:46:20;;;;;;;18.80;15.77;;;;;;;8.48;100.00;99215.25;4913428;29;20131;-86
2023/04/01 03:48:46;;;;;;;17.25;15.52;;;;;;;8.45;100.00;99214.72;4914858;29;20042;-87
2023/04/01 03:51:21;;;;;;;16.00;14.40;;;;;;;8.46;100.00;99219.00;4939186;29;20047;-87
2023/04/01 03:53:58;;;;;;;15.60;13.15;;;;;;;8.45;100.00;99222.59;4950867;29;20035;-86
2023/04/01 03:56:23;;;;;;;13.70;12.23;;;;;;;8.46;100.00;99224.22;4957454;28;20052;-87
2023/04/01 03:58:49;;;;;;;12.02;10.82;;;;;;;8.46;100.00;99224.22;4920283;29;20379;-86
2023/04/01 04:01:27;;;;;;;13.88;11.88;;;;;;;8.45;100.00;99222.59;4936596;29;20412;-87
2023/04/01 04:03:59;;;;;;;12.35;11.15;;;;;;;8.44;100.00;99228.78;4915768;29;20042;-87
2023/04/01 04:06:28;;;;;;;12.75;11.40;;;;;;;8.46;100.00;99232.91;4932480;29;20032;-87
2023/04/01 04:08:56;;;;;;;12.10;10.80;;;;;;;8.43;100.00;99229.75;4950253;29;20544;-88
2023/04/01 04:11:25;;;;;;;12.35;11.07;;;;;;;8.41;100.00;99240.38;4950577;29;20533;-87
2023/04/01 04:13:57;;;;;;;12.43;11.18;;;;;;;8.42;100.00;99239.41;4932496;29;20140;-87
2023/04/01 04:16:43;;;;;;;14.43;11.97;;;;;;;8.43;100.00;99237.63;4915311;29;20047;-88
2023/04/01 04:19:27;;;;;;;10.57;9.48;;;;;;;8.42;100.00;99242.03;4949212;29;20791;-87
2023/04/01 04:21:56;;;;;;;13.80;9.80;;;;;;;8.40;100.00;99243.09;4930469;29;20143;-87
2023/04/01 04:24:25;;;;;;;10.32;9.32;;;;;;;8.43;100.00;99256.78;4931975;29;20049;-87
2023/04/01 04:26:51;;;;;;;11.05;9.95;;;;;;;8.42;100.00;99251.69;4928290;29;20130;-87
2023/04/01 04:29:25;;;;;;;10.95;9.95;;;;;;;8.41;100.00;99258.72;4931854;29;20126;-87
2023/04/01 04:32:11;;;;;;;10.27;9.27;;;;;;;8.41;100.00;99257.91;4938691;29;20032;-87
2023/04/01 04:34:39;;;;;;;9.75;8.85;;;;;;;8.39;100.00;99251.94;4923809;29;20374;-88
2023/04/01 04:37:04;;;;;;;9.45;8.60;;;;;;;8.40;100.00;99258.84;4928174;29;20042;-88
2023/04/01 04:39:36;;;;;;;7.90;7.20;;;;;;;8.38;100.00;99258.16;4946662;29;20032;-87
2023/04/01 04:42:07;;;;;;;8.27;7.47;;;;;;;8.36;100.00;99267.94;4914393;29;20039;-87
2023/04/01 04:44:36;;;;;;;7.70;6.80;;;;;;;8.35;100.00;99266.28;4932026;29;20080;-87
2023/04/01 04:47:08;;;;;;;7.20;6.60;;;;;;;8.37;100.00;99273.03;4928718;29;20036;-87
2023/04/01 04:49:34;;;;;;;7.10;6.50;;;;;;;8.35;100.00;99261.88;4917994;29;20055;-87
2023/04/01 04:52:08;;;;;;;7.13;6.43;;;;;;;8.32;100.00;99271.78;4923160;29;20088;-87
2023/04/01 04:54:33;;;;;;;6.60;6.00;;;;;;;8.29;100.00;99272.88;4912286;29;20048;-86
2023/04/01 04:56:59;;;;;;;6.63;6.03;;;;;;;8.31;100.00;99273.56;4927425;29;20040;-86
2023/04/01 04:59:30;;;;;;;7.28;6.57;;;;;;;8.28;100.00;99281.69;4931591;29;20040;-86
2023/04/01 05:02:01;;;;;;;6.65;5.97;;;;;;;8.30;100.00;99286.81;4909926;29;20043;-86
2023/04/01 05:04:33;;;;;;;6.73;6.13;;;;;;;8.28;100.00;99288.72;4920268;29;20055;-86
2023/04/01 05:06:58;;;;;;;6.90;6.30;;;;;;;8.28;100.00;99286.13;4907692;29;20036;-86
2023/04/01 05:09:26;;;;;;;6.80;6.20;;;;;;;8.26;100.00;99298.53;4912198;29;20042;-86
2023/04/01 05:11:55;;;;;;;5.85;5.32;;;;;;;8.26;100.00;99293.28;4912867;29;20453;-86
2023/04/01 05:14:26;;;;;;;5.70;5.10;;;;;;;8.26;100.00;99298.53;4912885;29;20083;-86
2023/04/01 05:16:55;;;;;;;6.05;5.53;;;;;;;8.24;100.00;99303.06;4902577;29;20044;-86
2023/04/01 05:19:26;;;;;;;5.70;5.25;;;;;;;8.23;100.00;99309.28;4930410;29;20123;-86
2023/04/01 05:21:55;;;;;;;5.70;5.20;;;;;;;8.23;100.00;99306.66;4932090;29;20042;-87
2023/04/01 05:24:20;;;;;;;5.45;4.95;;;;;;;8.22;100.00;99311.06;4917422;29;20036;-86
2023/04/01 05:26:58;;;;;;;5.70;5.20;;;;;;;8.22;100.00;99318.09;4917641;29;20054;-86
2023/04/01 05:29:26;;;;;;;5.45;4.95;;;;;;;8.21;100.00;99319.06;4932202;29;20143;-86
2023/04/01 05:32:13;;;;;;;5.60;5.03;;;;;;;8.20;100.00;99325.28;4908436;29;20036;-85
2023/04/01 05:34:56;;;;;;;5.47;4.97;;;;;;;8.22;100.00;99328.59;4934321;29;20127;-85
2023/04/01 05:37:30;;;;;;;6.05;5.30;;;;;;;8.21;100.00;99326.94;4930452;29;20047;-86
2023/04/01 05:39:58;;;;;;;7.57;6.00;;;;;;;8.19;100.00;99332.31;4935944;29;20126;-86
2023/04/01 05:42:37;;;;;;;6.07;5.47;;;;;;;8.20;100.00;99335.75;4923730;29;20051;-87
2023/04/01 05:45:09;;;;;;;6.20;5.70;;;;;;;8.21;100.00;99345.28;4935040;29;20043;-86
2023/04/01 05:47:42;;;;;;;6.78;6.18;;;;;;;8.21;100.00;99350.50;4915522;29;20063;-85
2023/04/01 05:50:13;;;;;;;6.63;6.03;;;;;;;8.20;100.00;99356.72;4918418;29;20028;-85
2023/04/01 05:52:39;;;;;;;7.63;6.93;;;;;;;8.22;100.00;99360.03;4931285;29;20071;-85
2023/04/01 05:55:11;;;;;;;7.97;7.10;;;;;;;8.23;100.00;99364.31;4917156;29;20509;-85
2023/04/01 05:57:39;;;;;;;7.90;7.10;;;;;;;8.22;100.00;99354.78;4927623;29;20036;-86
2023/04/01 06:00:17;;;;;;;8.38;7.57;;;;;;;8.25;100.00;99367.63;4925960;29;20044;-85
2023/04/01 06:02:46;;;;;;;8.57;7.78;;;;;;;8.24;100.00;99368.59;4928618;29;20479;-86
2023/04/01 06:05:22;;;;;;;9.93;8.45;;;;;;;8.26;100.00;99380.56;4916310;29;20235;-86
2023/04/01 06:08:17;;;;;;;8.90;8.10;;;;;;;8.27;100.00;99378.78;4923641;29;20032;-85
2023/04/01 06:11:04;;;;;;;9.98;8.45;;;;;;;8.28;100.00;99390.94;4911978;29;20032;-86
2023/04/01 06:14:10;;;;;;;9.60;8.63;;;;;;;8.29;100.00;99392.59;4894712;29;20127;-86
2023/04/01 06:20:22;;;;;;;11.75;8.95;;;;;;;8.31;100.00;99406.38;4923696;29;20051;-86
2023/04/01 06:23:29;;;;;;;9.68;8.32;;;;;;;8.31;100.00;99401.13;4941264;29;20047;-86
2023/04/01 06:26:22;;;;;;;9.65;8.48;;;;;;;8.32;100.00;99414.09;4929389;28;20038;-86
2023/04/01 06:29:30;;;;;;;10.80;9.70;;;;;;;8.35;100.00;99418.28;4951283;28;20121;-86
2023/04/01 06:32:24;;;;;;;10.30;9.27;;;;;;;8.39;100.00;99427.53;4950861;28;20585;-86
2023/04/01 06:35:05;;;;;;;10.00;8.98;;;;;;;8.34;100.00;99422.69;4970451;28;20407;-86
2023/04/01 06:38:10;;;;;;;10.93;9.82;;;;;;;8.38;100.00;99423.25;4939500;29;20039;-86
2023/04/01 06:40:48;;;;;;;12.50;11.23;;;;;;;8.40;100.00;99426.56;4932106;29;20485;-86
2023/04/01 06:43:42;;;;;;;12.90;11.60;;;;;;;8.41;100.00;99429.06;4934270;28;20050;-86
2023/04/01 06:46:14;;;;;;;14.73;12.88;;;;;;;8.44;100.00;99434.03;4951701;29;20568;-86
2023/04/01 06:49:01;;;;;;;13.88;12.35;;;;;;;8.45;100.00;99430.47;4914720;29;20409;-85
2023/04/01 06:52:02;;;;;;;14.98;13.48;;;;;;;8.48;100.00;99442.47;4940092;29;20113;-86
2023/04/01 06:54:34;;;;;;;16.30;14.60;;;;;;;8.50;100.00;99448.41;4908080;29;20653;-86
2023/04/01 06:57:25;;;;;;;16.17;14.48;;;;;;;8.54;100.00;99447.16;4925091;29;20043;-85
2023/04/01 07:00:03;;;;;;;17.35;15.57;;;;;;;8.59;100.00;99457.25;4915460;29;20045;-86
2023/04/01 07:03:16;;;;;;;19.27;16.85;;;;;;;8.64;100.00;99450.63;4930341;29;20055;-85
2023/04/01 07:05:54;;;;;;;18.95;16.92;;;;;;;8.69;100.00;99463.31;4878303;29;20051;-85
2023/04/01 07:08:40;;;;;;;18.67;16.70;;;;;;;8.75;100.00;99466.22;4880352;29;20065;-85
2023/04/01 07:11:38;;;;;;;20.63;18.42;;;;;;;8.82;100.00;99468.34;4931134;29;20118;-85
2023/04/01 07:14:35;;;;;;;20.50;18.30;;;;;;;8.89;100.00;99465.03;4905378;29;20051;-85
2023/04/01 07:17:28;;;;;;;22.60;19.77;;;;;;;8.95;100.00;99476.75;4919575;29;20047;-85
2023/04/01 07:20:18;;;;;;;23.25;19.67;;;;;;;9.00;100.00;99483.25;4921922;29;20040;-85
2023/04/01 07:23:00;;;;;;;23.88;21.15;;;;;;;8.98;100.00;99479.94;4939399;29;20063;-85
2023/04/01 07:25:39;;;;;;;26.33;21.77;;;;;;;9.03;100.00;99484.78;4913688;29;20036;-85
2023/04/01 07:28:21;;;;;;;24.77;22.10;;;;;;;9.05;100.00;99485.47;4925569;29;20386;-84
2023/04/01 07:31:18;;;;;;;25.63;21.60;;;;;;;9.09;100.00;99492.09;4933689;29;20039;-84
2023/04/01 07:34:21;;;;;;;26.02;22.35;;;;;;;9.13;100.00;99498.72;4929163;29;20044;-84
2023/04/01 07:37:57;;;;;;;26.23;21.70;;;;;;;9.15;100.00;99501.22;4924413;29;20035;-84
2023/04/01 07:41:00;;;;;;;27.70;22.63;;;;;;;9.21;100.00;99506.75;4886710;29;20048;-84
2023/04/01 07:43:56;;;;;;;29.38;21.25;;;;;;;9.21;100.00;99501.50;4933357;29;20032;-84
2023/04/01 07:47:04;;;;;;;26.33;20.35;;;;;;;9.23;100.00;99517.94;4931269;29;20072;-84
2023/04/01 07:49:47;;;;;;;25.50;21.48;;;;;;;9.21;100.00;99519.88;4892678;29;20051;-84
2023/04/01 07:52:54;;;;;;;26.20;22.15;;;;;;;9.21;100.00;99527.75;4885514;29;20132;-84
2023/04/01 07:55:38;;;;;;;28.33;22.30;;;;;;;9.23;100.00;99536.31;4912857;29;20040;-85
2023/04/01 07:58:41;;;;;;;28.88;22.13;;;;;;;9.18;100.00;99533.25;4930461;29;20492;-85
2023/04/01 08:01:29;;;;;;;30.27;21.73;;;;;;;9.20;100.00;99541.81;4926704;29;20039;-84
2023/04/01 08:04:21;;;;;;;27.10;21.10;;;;;;;9.21;100.00;99548.75;4927363;29;20048;-84
2023/04/01 08:06:49;;;;;;;28.70;21.73;;;;;;;9.24;100.00;99539.78;4912777;29;20040;-86
2023/04/01 08:09:27;;;;;;;28.58;21.70;;;;;;;9.32;100.00;99553.03;4913391;29;20054;-86
2023/04/01 08:12:21;;;;;;;26.77;21.02;;;;;;;9.47;100.00;99548.19;4923061;29;20047;-86
2023/04/01 08:15:26;;;;;;;27.83;20.85;;;;;;;9.72;100.00;99555.53;4931916;29;20497;-86
2023/04/01 08:18:13;;;;;;;26.80;20.25;;;;;;;9.78;100.00;99560.22;4909655;29;20055;-86
2023/04/01 08:20:55;;;;;;;27.10;21.13;;;;;;;9.90;100.00;99569.59;4909898;29;20084;-87
2023/04/01 08:24:00;;;;;;;23.63;20.60;;;;;;;10.07;100.00;99567.22;4929752;29;20063;-86
2023/04/01 08:26:59;;;;;;;26.08;20.50;;;;;;;10.07;100.00;99577.75;4884442;29;20078;-87
2023/04/01 08:29:50;;;;;;;27.52;19.63;;;;;;;10.11;100.00;99572.06;4928486;29;20067;-87
2023/04/01 08:32:28;;;;;;;27.40;20.40;;;;;;;10.00;100.00;99583.53;4946099;29;20031;-85
2023/04/01 08:35:52;;;;;;;25.48;19.63;;;;;;;10.04;100.00;99574.44;4922895;29;20134;-84
2023/04/01 08:38:36;;;;;;;28.35;20.10;;;;;;;10.00;100.00;99583.53;4894699;29;20035;-85
2023/04/01 08:41:49;;;;;;;24.02;18.38;;;;;;;9.95;100.00;99585.75;4893594;29;20040;-85
2023/04/01 08:44:38;;;;;;;23.27;17.52;;;;;;;9.91;100.00;99602.78;4875811;29;20045;-85
2023/04/01 08:48:09;;;;;;;;;;;;;;;;;;;;;
2023/04/01 08:50:44;;;;;;;24.90;18.65;;;;;;;9.99;100.00;99600.25;4914404;29;20028;-85
2023/04/01 08:53:16;;;;;;;22.23;17.67;;;;;;;10.04;100.00;99605.97;4918338;29;20400;-85
2023/04/01 08:56:20;;;;;;;22.08;17.42;;;;;;;10.22;100.00;99607.88;4916820;29;20032;-85
2023/04/01 08:59:33;;;;;;;22.17;17.63;;;;;;;10.34;100.00;99606.75;4916829;29;20171;-85
2023/04/01 09:05:55;;;;;;;18.17;15.82;;;;;;;10.39;100.00;99624.72;4870780;29;20056;-84
2023/04/01 09:08:33;;;;;;;17.90;15.10;;;;;;;10.40;100.00;99629.81;4843056;29;20072;-81
2023/04/01 09:11:17;;;;;;;16.38;14.35;;;;;;;10.51;100.00;99628.84;4871951;29;20045;-80
2023/04/01 09:14:04;;;;;;;20.35;13.50;;;;;;;10.63;100.00;99631.16;4918097;29;20038;-80
2023/04/01 09:17:04;;;;;;;19.58;12.52;;;;;;;10.57;100.00;99644.88;4925242;29;20042;-80
2023/04/01 09:20:17;;;;;;;14.70;13.15;;;;;;;10.53;100.00;99647.94;4932492;29;20036;-81
2023/04/01 09:23:29;;;;;;;14.05;12.05;;;;;;;10.46;100.00;99645.06;4951150;29;20497;-80
2023/04/01 09:26:31;;;;;;;12.85;11.55;;;;;;;10.48;100.00;99645.75;4895056;29;20576;-81
2023/04/01 09:29:16;;;;;;;13.95;11.55;;;;;;;10.49;100.00;99655.31;4911501;29;20040;-81
2023/04/01 09:32:22;;;;;;;13.65;12.20;;;;;;;10.55;100.00;99651.25;4897515;29;20044;-81
2023/04/01 09:35:19;;;;;;;12.68;10.68;;;;;;;10.44;100.00;99660.16;4936116;29;20046;-81
2023/04/01 09:38:06;;;;;;;11.52;10.43;;;;;;;10.44;100.00;99660.16;4944925;29;20511;-81
2023/04/01 09:41:10;;;;;;;10.77;9.77;;;;;;;10.36;100.00;99657.38;4949402;29;20039;-81
2023/04/01 09:44:03;;;;;;;12.43;9.40;;;;;;;10.33;100.00;99668.19;4950494;29;20046;-80
2023/04/01 09:47:09;;;;;;;9.85;8.75;;;;;;;10.27;100.00;99674.84;4933680;29;20500;-81
2023/04/01 09:50:15;;;;;;;9.50;8.60;;;;;;;10.30;100.00;99673.72;4944120;29;20046;-81
2023/04/01 09:52:43;;;;;;;9.88;8.90;;;;;;;10.28;100.00;99673.88;4944744;29;20032;-81
2023/04/01 09:55:20;;;;;;;9.98;8.98;;;;;;;10.29;100.00;99677.31;4948442;28;20054;-80
2023/04/01 09:58:23;;;;;;;11.35;9.18;;;;;;;10.34;100.00;99688.25;4937451;29;20083;-81
2023/04/01 10:01:10;;;;;;;10.73;9.70;;;;;;;10.26;100.00;99688.94;4946995;29;20126;-80
2023/04/01 10:04:31;;;;;;;10.02;9.13;;;;;;;10.29;100.00;99686.03;4933407;29;20810;-81
2023/04/01 10:07:34;;;;;;;13.05;9.73;;;;;;;10.29;100.00;99698.34;4945799;29;20036;-80
2023/04/01 10:10:40;;;;;;;11.70;10.50;;;;;;;10.28;100.00;99697.53;4960861;28;20046;-80
2023/04/01 10:13:18;;;;;;;11.68;10.38;;;;;;;10.27;100.00;99700.28;4911735;29;20505;-80
2023/04/01 10:16:05;;;;;;;11.77;10.57;;;;;;;10.22;100.00;99705.16;4916304;29;20040;-80
2023/04/01 10:19:11;;;;;;;11.13;10.00;;;;;;;10.21;100.00;99709.56;4931644;29;20031;-80
2023/04/01 10:22:13;;;;;;;11.63;10.52;;;;;;;10.17;100.00;99705.53;4915490;29;20059;-80
2023/04/01 10:25:03;;;;;;;12.35;11.07;;;;;;;10.04;100.00;99711.06;4916422;29;20828;-80
2023/04/01 10:27:46;;;;;;;13.05;11.75;;;;;;;9.95;100.00;99706.63;4915363;29;20520;-80
2023/04/01 10:30:41;;;;;;;15.82;13.10;;;;;;;9.95;100.00;99717.13;4943020;28;20126;-80
2023/04/01 10:37:11;;;;;;;15.18;13.63;;;;;;;9.94;100.00;99714.63;4895945;29;20039;-80
2023/04/01 10:39:51;;;;;;;15.40;13.73;;;;;;;9.90;100.00;99723.78;4895673;29;20051;-80
2023/04/01 10:42:55;;;;;;;15.80;14.20;;;;;;;9.89;100.00;99724.72;4874261;29;20037;-80
2023/04/01 10:45:52;;;;;;;16.75;14.75;;;;;;;9.87;100.00;99726.66;4833297;29;20106;-80
2023/04/01 10:48:55;;;;;;;18.58;15.95;;;;;;;9.89;100.00;99733.44;4829128;29;20042;-79
2023/04/01 10:51:35;;;;;;;17.87;15.30;;;;;;;9.96;100.00;99737.19;4821784;29;20046;-80
2023/04/01 10:54:39;;;;;;;17.83;14.93;;;;;;;9.97;100.00;99732.75;4838430;29;20090;-79
2023/04/01 10:57:32;;;;;;;18.23;16.15;;;;;;;9.94;100.00;99733.88;4823521;29;20159;-81
2023/04/01 11:00:46;;;;;;;18.15;16.05;;;;;;;9.89;100.00;99741.31;4840849;29;20045;-81
2023/04/01 11:03:51;;;;;;;18.65;16.75;;;;;;;9.86;100.00;99738.97;4856043;29;20134;-81
2023/04/01 11:06:31;;;;;;;18.80;16.30;;;;;;;9.84;100.00;99740.91;4858193;29;20068;-81
2023/04/01 11:09:21;;;;;;;20.25;16.33;;;;;;;9.85;100.00;99741.75;4862547;29;20562;-81
2023/04/01 11:12:23;;;;;;;18.70;16.33;;;;;;;9.86;100.00;99744.22;4858457;29;20029;-81
2023/04/01 11:15:33;;;;;;;18.67;16.67;;;;;;;9.95;100.00;99747.84;4932771;29;20182;-81
2023/04/01 11:18:24;;;;;;;19.17;17.15;;;;;;;10.01;100.00;99768.34;4928472;29;20042;-81
2023/04/01 11:21:33;;;;;;;18.20;16.30;;;;;;;10.07;100.00;99762.53;4930650;29;20061;-81
2023/04/01 11:24:28;;;;;;;17.40;15.55;;;;;;;10.07;100.00;99761.69;4933367;29;20099;-81
2023/04/01 11:27:16;;;;;;;18.25;15.15;;;;;;;10.09;100.00;99763.22;4949048;29;20047;-81
2023/04/01 11:30:25;;;;;;;17.55;15.25;;;;;;;10.14;100.00;99762.81;4881191;29;20052;-81
2023/04/01 11:33:16;;;;;;;14.90;13.48;;;;;;;10.11;100.00;99769.16;4916606;29;20040;-81
2023/04/01 11:35:59;;;;;;;15.55;13.90;;;;;;;10.13;100.00;99769.88;4944413;28;20485;-81
2023/04/01 11:38:46;;;;;;;16.00;14.38;;;;;;;10.16;100.00;99780.09;4941323;29;20044;-81
2023/04/01 11:41:38;;;;;;;15.82;14.23;;;;;;;10.22;100.00;99776.13;4921752;29;20563;-81
2023/04/01 11:44:43;;;;;;;15.57;13.98;;;;;;;10.29;100.00;99785.13;4932605;29;20043;-82
2023/04/01 11:47:47;;;;;;;16.50;14.90;;;;;;;10.31;100.00;99788.44;4924218;29;20404;-82
2023/04/01 11:51:10;;;;;;;16.92;14.20;;;;;;;10.33;100.00;99789.13;4898355;29;20088;-82
2023/04/01 11:54:17;;;;;;;14.87;13.00;;;;;;;10.30;100.00;99792.03;4861238;29;20080;-82
2023/04/01 11:57:20;;;;;;;13.95;12.55;;;;;;;10.20;100.00;99799.06;4855702;29;20033;-80
2023/04/01 12:00:12;;;;;;;14.25;12.75;;;;;;;10.12;100.00;99807.63;4855324;29;20083;-82
2023/04/01 12:03:25;;;;;;;13.60;12.30;;;;;;;10.16;100.00;99808.19;4945004;29;20046;-81
2023/04/01 12:06:27;;;;;;;12.70;11.43;;;;;;;10.12;100.00;99812.06;4947274;29;20742;-82
2023/04/01 12:10:03;;;;;;;13.30;11.90;;;;;;;10.16;100.00;99810.81;4934926;29;20041;-81
2023/04/01 12:13:06;;;;;;;11.65;10.55;;;;;;;10.14;100.00;99815.38;4890888;29;20044;-80
2023/04/01 12:15:59;;;;;;;11.70;10.50;;;;;;;10.15;100.00;99820.50;4910069;29;20036;-81
2023/04/01 12:18:54;;;;;;;11.38;10.25;;;;;;;10.15;100.00;99824.91;4942730;29;20054;-80
2023/04/01 12:21:55;;;;;;;11.90;10.65;;;;;;;10.17;100.00;99820.34;4934806;29;20048;-80
2023/04/01 12:25:09;;;;;;;10.85;9.75;;;;;;;10.18;100.00;99824.66;4913772;29;20107;-80
2023/04/01 12:27:56;;;;;;;;;;;;;;;10.27;100.00;99831.75;4889692;29;20160;-80
2023/04/01 12:31:02;;;;;;;11.27;9.88;;;;;;;10.20;100.00;99825.34;4918507;29;20002;-80
2023/04/01 12:33:58;;;;;;;10.18;9.18;;;;;;;10.19;100.00;99835.03;4858831;29;20053;-85
2023/04/01 12:37:00;;;;;;;10.13;9.20;;;;;;;10.17;100.00;99836.13;4866358;29;20064;-84
2023/04/01 12:40:04;;;;;;;10.38;9.38;;;;;;;10.13;100.00;99847.88;4863172;29;20065;-85
2023/04/01 12:43:26;;;;;;;;;;;;;;;;;;;;;
2023/04/01 12:46:15;;;;;;;11.48;10.38;;;;;;;10.14;100.00;99852.19;4914335;29;20028;-85
2023/04/01 12:48:59;;;;;;;11.77;10.65;;;;;;;10.11;100.00;99853.28;4899763;29;20040;-86
2023/04/01 12:51:58;;;;;;;12.48;11.18;;;;;;;10.17;100.00;99862.41;4917931;29;20079;-86
2023/04/01 12:55:08;;;;;;;13.73;12.20;;;;;;;10.19;100.00;99863.94;4922550;29;20042;-85